createdAt,value
2017-09-17T00:00:33.360Z,33.28
2017-09-17T00:01:07.862Z,32.80
2017-09-17T00:01:41.569Z,33.30
2017-09-17T00:02:15.862Z,37.05
2017-09-17T00:02:49.584Z,34.40
2017-09-17T00:03:23.318Z,32.40
2017-09-17T00:03:57.054Z,31.77
2017-09-17T00:04:31.845Z,40.75
2017-09-17T00:05:05.573Z,38.30
2017-09-17T00:05:39.296Z,35.42
2017-09-17T00:06:13.034Z,32.00
2017-09-17T00:06:47.572Z,37.13
2017-09-17T00:07:21.294Z,33.17
2017-09-17T00:07:55.020Z,32.47
2017-09-17T00:08:29.514Z,29.17
2017-09-17T00:09:03.232Z,26.37
2017-09-17T00:09:37.344Z,27.27
2017-09-17T00:10:11.068Z,35.95
2017-09-17T00:10:44.808Z,33.38
2017-09-17T00:11:19.297Z,30.50
2017-09-17T00:11:53.020Z,30.65
2017-09-17T00:12:26.741Z,32.15
2017-09-17T00:13:00.454Z,29.63
2017-09-17T00:13:34.159Z,32.20
2017-09-17T00:14:07.887Z,32.65
2017-09-17T00:14:42.011Z,33.25
2017-09-17T00:15:15.741Z,31.52
2017-09-17T00:15:49.464Z,35.45
2017-09-17T00:16:23.196Z,35.03
2017-09-17T00:16:56.908Z,35.72
2017-09-17T00:17:30.628Z,33.20
2017-09-17T00:18:05.104Z,40.95
2017-09-17T00:18:38.825Z,33.40
2017-09-17T00:19:13.327Z,40.08
2017-09-17T00:19:48.111Z,37.70
2017-09-17T00:20:21.841Z,36.47
2017-09-17T00:20:56.453Z,32.80
2017-09-17T00:21:30.928Z,36.28
2017-09-17T00:22:04.635Z,41.70
2017-09-17T00:22:38.171Z,35.45
2017-09-17T00:23:11.885Z,35.30
2017-09-17T00:23:45.598Z,31.62
2017-09-17T00:24:19.332Z,32.13
2017-09-17T00:24:53.457Z,35.70
2017-09-17T00:25:27.182Z,32.35
2017-09-17T00:26:00.901Z,37.72
2017-09-17T00:26:34.646Z,33.88
2017-09-17T00:27:08.365Z,34.78
2017-09-17T00:27:42.876Z,35.10
2017-09-17T00:28:17.357Z,38.35
2017-09-17T00:28:51.105Z,33.85
2017-09-17T00:29:24.818Z,34.20
2017-09-17T00:29:58.877Z,39.10
2017-09-17T00:30:33.376Z,43.22
2017-09-17T00:31:07.853Z,42.67
2017-09-17T00:31:41.215Z,44.47
2017-09-17T00:32:14.955Z,31.12
2017-09-17T00:32:49.443Z,33.47
2017-09-17T00:33:23.145Z,39.60
2017-09-17T00:33:56.875Z,36.75
2017-09-17T00:34:30.594Z,38.97
2017-09-17T00:35:04.341Z,32.25
2017-09-17T00:35:38.818Z,39.53
2017-09-17T00:36:14.028Z,38.00
2017-09-17T00:36:47.393Z,37.72
2017-09-17T00:37:21.142Z,40.12
2017-09-17T00:37:55.618Z,38.65
2017-09-17T00:38:29.351Z,36.72
2017-09-17T00:39:03.080Z,40.20
2017-09-17T00:39:36.798Z,37.00
2017-09-17T00:40:10.446Z,36.65
2017-09-17T00:40:44.173Z,35.30
2017-09-17T00:41:17.203Z,34.50
2017-09-17T00:41:50.936Z,42.88
2017-09-17T00:42:24.650Z,45.38
2017-09-17T00:42:59.138Z,42.03
2017-09-17T00:43:32.851Z,40.22
2017-09-17T00:44:07.340Z,42.28
2017-09-17T00:44:41.106Z,37.42
2017-09-17T00:45:14.860Z,39.33
2017-09-17T00:45:48.588Z,39.85
2017-09-17T00:46:22.295Z,39.53
2017-09-17T00:46:56.013Z,44.30
2017-09-17T00:47:30.484Z,40.47
2017-09-17T00:48:04.113Z,47.40
2017-09-17T00:48:38.597Z,43.33
2017-09-17T00:49:12.313Z,44.22
2017-09-17T00:49:46.108Z,41.47
2017-09-17T00:50:19.972Z,37.97
2017-09-17T00:50:53.341Z,41.78
2017-09-17T00:51:26.380Z,38.63
2017-09-17T00:51:59.407Z,42.28
2017-09-17T00:52:32.232Z,35.42
2017-09-17T00:53:05.990Z,35.88
2017-09-17T00:53:39.782Z,33.35
2017-09-17T00:54:13.561Z,32.00
2017-09-17T00:54:46.586Z,35.47
2017-09-17T00:55:20.167Z,31.75
2017-09-17T00:55:53.531Z,28.25
2017-09-17T00:56:27.247Z,28.52
2017-09-17T00:57:00.604Z,30.20
2017-09-17T00:57:34.310Z,26.80
2017-09-17T00:58:08.052Z,25.83
2017-09-17T00:58:41.421Z,26.05
2017-09-17T00:59:14.802Z,24.08
2017-09-17T00:59:48.515Z,21.70
2017-09-17T01:00:22.543Z,25.23
2017-09-17T01:00:55.905Z,26.95
2017-09-17T01:01:30.040Z,21.42
2017-09-17T01:02:03.749Z,29.00
2017-09-17T01:02:37.507Z,31.05
2017-09-17T01:03:10.906Z,25.25
2017-09-17T01:03:44.615Z,27.02
2017-09-17T01:04:18.331Z,24.08
2017-09-17T01:04:51.685Z,24.63
2017-09-17T01:05:25.767Z,24.27
2017-09-17T01:05:59.204Z,24.27
2017-09-17T01:06:33.732Z,22.08
2017-09-17T01:07:08.233Z,21.67
2017-09-17T01:07:42.729Z,27.17
2017-09-17T01:08:16.090Z,23.77
2017-09-17T01:08:49.814Z,19.10
2017-09-17T01:09:24.305Z,19.73
2017-09-17T01:09:58.452Z,20.50
2017-09-17T01:10:32.130Z,20.62
2017-09-17T01:11:05.154Z,24.83
2017-09-17T01:11:38.512Z,23.52
2017-09-17T01:12:12.239Z,24.52
2017-09-17T01:12:45.592Z,25.62
2017-09-17T01:13:19.116Z,21.83
2017-09-17T01:13:52.476Z,23.00
2017-09-17T01:14:25.695Z,20.08
2017-09-17T01:15:00.177Z,21.30
2017-09-17T01:15:34.213Z,23.60
2017-09-17T01:16:07.936Z,20.58
2017-09-17T01:16:41.657Z,23.15
2017-09-17T01:17:15.367Z,26.00
2017-09-17T01:17:49.876Z,18.42
2017-09-17T01:18:24.028Z,20.12
2017-09-17T01:18:57.752Z,19.87
2017-09-17T01:19:31.137Z,20.02
2017-09-17T01:20:04.514Z,16.67
2017-09-17T01:20:37.937Z,21.17
2017-09-17T01:21:10.990Z,17.05
2017-09-17T01:21:45.138Z,24.98
2017-09-17T01:22:18.166Z,16.30
2017-09-17T01:22:52.335Z,19.62
2017-09-17T01:23:26.074Z,20.23
2017-09-17T01:23:59.444Z,16.08
2017-09-17T01:24:33.235Z,19.52
2017-09-17T01:25:07.037Z,14.25
2017-09-17T01:25:40.732Z,20.10
2017-09-17T01:26:14.125Z,18.58
2017-09-17T01:26:47.164Z,19.15
2017-09-17T01:27:22.388Z,20.33
2017-09-17T01:27:56.531Z,21.83
2017-09-17T01:28:30.276Z,17.70
2017-09-17T01:29:03.986Z,19.60
2017-09-17T01:29:38.477Z,19.05
2017-09-17T01:30:12.201Z,19.73
2017-09-17T01:30:46.207Z,18.67
2017-09-17T01:31:19.928Z,22.10
2017-09-17T01:31:53.660Z,25.02
2017-09-17T01:32:28.148Z,21.58
2017-09-17T01:33:01.967Z,22.50
2017-09-17T01:33:36.453Z,18.35
2017-09-17T01:34:10.177Z,18.83
2017-09-17T01:34:43.911Z,15.82
2017-09-17T01:35:17.642Z,15.95
2017-09-17T01:35:52.477Z,15.90
2017-09-17T01:36:26.189Z,17.10
2017-09-17T01:36:59.945Z,18.10
2017-09-17T01:37:34.443Z,19.70
2017-09-17T01:38:08.925Z,16.70
2017-09-17T01:38:42.644Z,16.62
2017-09-17T01:39:16.361Z,17.40
2017-09-17T01:39:50.093Z,18.58
2017-09-17T01:40:23.817Z,16.95
2017-09-17T01:40:58.397Z,18.90
2017-09-17T01:41:31.793Z,18.50
2017-09-17T01:42:05.510Z,16.30
2017-09-17T01:42:39.997Z,18.05
2017-09-17T01:43:13.725Z,13.90
2017-09-17T01:43:47.443Z,16.83
2017-09-17T01:44:21.158Z,14.43
2017-09-17T01:44:54.520Z,16.33
2017-09-17T01:45:28.240Z,16.33
2017-09-17T01:46:02.240Z,14.45
2017-09-17T01:46:35.955Z,14.40
2017-09-17T01:47:10.441Z,17.83
2017-09-17T01:47:45.668Z,18.55
2017-09-17T01:48:20.150Z,16.77
2017-09-17T01:48:53.873Z,21.02
2017-09-17T01:49:27.984Z,15.35
2017-09-17T01:50:02.488Z,19.67
2017-09-17T01:50:36.977Z,13.85
2017-09-17T01:51:11.054Z,17.73
2017-09-17T01:51:44.768Z,19.45
2017-09-17T01:52:18.591Z,17.65
2017-09-17T01:52:53.078Z,17.85
2017-09-17T01:53:27.577Z,15.90
2017-09-17T01:54:01.292Z,18.60
2017-09-17T01:54:35.778Z,17.80
2017-09-17T01:55:09.491Z,18.65
2017-09-17T01:55:43.970Z,14.95
2017-09-17T01:56:18.009Z,14.32
2017-09-17T01:56:51.721Z,16.37
2017-09-17T01:57:25.431Z,15.05
2017-09-17T01:57:59.149Z,24.37
2017-09-17T01:58:32.532Z,14.45
2017-09-17T01:59:06.346Z,14.55
2017-09-17T01:59:40.841Z,19.35
2017-09-17T02:00:15.337Z,18.20
2017-09-17T02:00:49.064Z,24.70
2017-09-17T02:01:23.175Z,14.68
2017-09-17T02:01:56.974Z,18.95
2017-09-17T02:02:30.691Z,15.88
2017-09-17T02:03:04.422Z,13.60
2017-09-17T02:03:38.925Z,15.00
2017-09-17T02:04:13.415Z,14.27
2017-09-17T02:04:47.241Z,15.38
2017-09-17T02:05:21.741Z,14.07
2017-09-17T02:05:56.313Z,17.48
2017-09-17T02:06:30.050Z,15.07
2017-09-17T02:07:04.541Z,22.08
2017-09-17T02:07:39.049Z,13.93
2017-09-17T02:08:13.012Z,18.62
2017-09-17T02:08:46.742Z,17.15
2017-09-17T02:09:21.244Z,17.15
2017-09-17T02:09:55.737Z,21.27
2017-09-17T02:10:29.460Z,17.35
2017-09-17T02:11:03.939Z,18.87
2017-09-17T02:11:37.994Z,22.45
2017-09-17T02:12:11.543Z,16.20
2017-09-17T02:12:45.269Z,18.83
2017-09-17T02:13:18.994Z,17.10
2017-09-17T02:13:52.727Z,15.35
2017-09-17T02:14:27.210Z,17.45
2017-09-17T02:15:00.745Z,18.00
2017-09-17T02:15:34.465Z,24.20
2017-09-17T02:16:08.206Z,21.05
2017-09-17T02:16:43.060Z,18.05
2017-09-17T02:17:16.785Z,14.98
2017-09-17T02:17:50.525Z,17.67
2017-09-17T02:18:24.266Z,17.92
2017-09-17T02:18:57.986Z,20.52
2017-09-17T02:19:32.461Z,19.50
2017-09-17T02:20:06.182Z,17.10
2017-09-17T02:20:40.659Z,19.30
2017-09-17T02:21:14.382Z,19.60
2017-09-17T02:21:49.207Z,16.45
2017-09-17T02:22:23.676Z,17.75
2017-09-17T02:22:57.389Z,18.08
2017-09-17T02:23:31.916Z,18.95
2017-09-17T02:24:06.401Z,15.82
2017-09-17T02:24:40.896Z,18.15
2017-09-17T02:25:14.644Z,17.87
2017-09-17T02:25:48.362Z,15.63
2017-09-17T02:26:22.071Z,21.00
2017-09-17T02:26:55.803Z,19.85
2017-09-17T02:27:29.537Z,19.52
2017-09-17T02:28:03.252Z,18.87
2017-09-17T02:28:38.599Z,18.45
2017-09-17T02:29:13.073Z,15.70
2017-09-17T02:29:46.794Z,17.60
2017-09-17T02:30:21.285Z,19.25
2017-09-17T02:30:55.005Z,17.55
2017-09-17T02:31:29.609Z,19.62
2017-09-17T02:32:04.144Z,17.40
2017-09-17T02:32:37.864Z,17.90
2017-09-17T02:33:11.581Z,18.42
2017-09-17T02:33:45.300Z,19.40
2017-09-17T02:34:19.021Z,17.77
2017-09-17T02:34:52.751Z,17.70
2017-09-17T02:35:27.237Z,17.15
2017-09-17T02:36:00.954Z,21.92
2017-09-17T02:36:35.430Z,15.77
2017-09-17T02:37:09.493Z,18.10
2017-09-17T02:37:43.201Z,17.80
2017-09-17T02:38:16.919Z,18.90
2017-09-17T02:38:51.275Z,21.58
2017-09-17T02:39:24.982Z,19.98
2017-09-17T02:39:58.357Z,21.50
2017-09-17T02:40:32.084Z,16.92
2017-09-17T02:41:05.809Z,19.05
2017-09-17T02:41:40.290Z,19.20
2017-09-17T02:42:14.152Z,17.92
2017-09-17T02:42:47.866Z,20.55
2017-09-17T02:43:21.592Z,17.33
2017-09-17T02:43:56.067Z,17.00
2017-09-17T02:44:29.806Z,17.45
2017-09-17T02:45:03.765Z,15.57
2017-09-17T02:45:37.479Z,18.15
2017-09-17T02:46:11.966Z,17.05
2017-09-17T02:46:45.347Z,17.02
2017-09-17T02:47:19.078Z,14.82
2017-09-17T02:47:53.588Z,17.87
2017-09-17T02:48:27.316Z,19.90
2017-09-17T02:49:00.692Z,16.73
2017-09-17T02:49:34.414Z,14.87
2017-09-17T02:50:08.120Z,15.57
2017-09-17T02:50:42.601Z,16.27
2017-09-17T02:51:16.317Z,16.15
2017-09-17T02:51:50.031Z,13.70
2017-09-17T02:52:24.857Z,16.05
2017-09-17T02:52:58.581Z,17.12
2017-09-17T02:53:32.310Z,18.98
2017-09-17T02:54:06.781Z,16.87
2017-09-17T02:54:40.497Z,20.02
2017-09-17T02:55:14.225Z,19.20
2017-09-17T02:55:47.951Z,16.65
2017-09-17T02:56:21.680Z,20.50
2017-09-17T02:56:55.397Z,13.95
2017-09-17T02:57:29.497Z,15.38
2017-09-17T02:58:03.228Z,13.15
2017-09-17T02:58:37.006Z,18.35
2017-09-17T02:59:10.721Z,14.02
2017-09-17T02:59:44.448Z,14.00
2017-09-17T03:00:18.947Z,14.65
2017-09-17T03:00:53.428Z,12.77
2017-09-17T03:01:27.167Z,13.32
2017-09-17T03:02:00.947Z,13.43
2017-09-17T03:02:35.773Z,15.70
2017-09-17T03:03:09.489Z,15.13
2017-09-17T03:03:43.206Z,13.00
2017-09-17T03:04:16.916Z,13.60
2017-09-17T03:04:50.637Z,14.80
2017-09-17T03:05:24.393Z,15.23
2017-09-17T03:05:57.762Z,18.33
2017-09-17T03:06:31.525Z,18.10
2017-09-17T03:07:05.248Z,15.38
2017-09-17T03:07:39.292Z,14.87
2017-09-17T03:08:13.013Z,16.87
2017-09-17T03:08:46.733Z,13.55
2017-09-17T03:09:20.464Z,13.43
2017-09-17T03:09:54.186Z,17.73
2017-09-17T03:10:27.904Z,17.55
2017-09-17T03:11:01.652Z,15.38
2017-09-17T03:11:35.598Z,15.82
2017-09-17T03:12:09.321Z,22.27
2017-09-17T03:12:43.935Z,13.60
2017-09-17T03:13:17.654Z,16.92
2017-09-17T03:13:51.377Z,16.33
2017-09-17T03:14:25.094Z,13.70
2017-09-17T03:14:59.569Z,16.92
2017-09-17T03:15:33.275Z,14.57
2017-09-17T03:16:06.884Z,13.95
2017-09-17T03:16:41.365Z,15.05
2017-09-17T03:17:15.080Z,19.55
2017-09-17T03:17:49.851Z,11.90
2017-09-17T03:18:23.580Z,14.50
2017-09-17T03:18:58.075Z,15.60
2017-09-17T03:19:31.790Z,16.92
2017-09-17T03:20:05.526Z,12.70
2017-09-17T03:20:39.252Z,13.05
2017-09-17T03:21:12.985Z,15.60
2017-09-17T03:21:46.702Z,12.85
2017-09-17T03:22:20.409Z,14.77
2017-09-17T03:22:54.461Z,14.07
2017-09-17T03:23:28.174Z,11.68
2017-09-17T03:24:01.895Z,13.32
2017-09-17T03:24:35.613Z,10.70
2017-09-17T03:25:10.098Z,14.48
2017-09-17T03:25:43.831Z,12.77
2017-09-17T03:26:17.555Z,14.52
2017-09-17T03:26:51.272Z,10.65
2017-09-17T03:27:24.984Z,14.07
2017-09-17T03:27:59.765Z,11.02
2017-09-17T03:28:33.493Z,11.75
2017-09-17T03:29:07.963Z,10.57
2017-09-17T03:29:41.708Z,13.05
2017-09-17T03:30:15.409Z,11.02
2017-09-17T03:30:49.129Z,15.07
2017-09-17T03:31:22.838Z,11.05
2017-09-17T03:31:56.542Z,10.63
2017-09-17T03:32:31.020Z,13.27
2017-09-17T03:33:05.167Z,13.00
2017-09-17T03:33:39.638Z,12.10
2017-09-17T03:34:13.338Z,13.82
2017-09-17T03:34:47.044Z,12.95
2017-09-17T03:35:21.518Z,15.57
2017-09-17T03:35:55.243Z,13.05
2017-09-17T03:36:29.716Z,15.88
2017-09-17T03:37:03.236Z,14.18
2017-09-17T03:37:37.710Z,12.48
2017-09-17T03:38:11.764Z,14.73
2017-09-17T03:38:45.488Z,16.05
2017-09-17T03:39:19.335Z,14.55
2017-09-17T03:39:53.632Z,14.95
2017-09-17T03:40:28.107Z,14.90
2017-09-17T03:41:01.824Z,13.62
2017-09-17T03:41:36.313Z,18.20
2017-09-17T03:42:09.337Z,14.05
2017-09-17T03:42:43.076Z,18.02
2017-09-17T03:43:17.116Z,13.95
2017-09-17T03:43:50.833Z,14.85
2017-09-17T03:44:24.560Z,14.27
2017-09-17T03:44:58.100Z,13.68
2017-09-17T03:45:31.623Z,14.18
2017-09-17T03:46:05.328Z,16.08
2017-09-17T03:46:39.033Z,13.10
2017-09-17T03:47:13.504Z,14.68
2017-09-17T03:47:47.221Z,18.35
2017-09-17T03:48:21.247Z,18.40
2017-09-17T03:48:54.950Z,13.82
2017-09-17T03:49:28.669Z,14.00
2017-09-17T03:50:02.387Z,17.23
2017-09-17T03:50:36.876Z,18.90
2017-09-17T03:51:10.585Z,19.00
2017-09-17T03:51:44.292Z,16.85
2017-09-17T03:52:18.764Z,20.30
2017-09-17T03:52:52.475Z,17.37
2017-09-17T03:53:26.507Z,18.20
2017-09-17T03:54:00.211Z,18.17
2017-09-17T03:54:33.922Z,16.62
2017-09-17T03:55:07.640Z,20.05
2017-09-17T03:55:41.344Z,18.87
2017-09-17T03:56:15.057Z,17.35
2017-09-17T03:56:48.764Z,15.23
2017-09-17T03:57:22.527Z,19.75
2017-09-17T03:57:57.037Z,14.60
2017-09-17T03:58:31.861Z,14.27
2017-09-17T03:59:06.337Z,13.68
2017-09-17T03:59:40.563Z,18.98
2017-09-17T04:00:14.269Z,12.60
2017-09-17T04:00:48.737Z,9.65
2017-09-17T04:01:22.441Z,11.00
2017-09-17T04:01:56.916Z,16.37
2017-09-17T04:02:30.551Z,12.52
2017-09-17T04:03:04.833Z,11.98
2017-09-17T04:03:38.856Z,12.40
2017-09-17T04:04:13.329Z,15.63
2017-09-17T04:04:47.049Z,13.00
2017-09-17T04:05:21.549Z,13.65
2017-09-17T04:05:55.262Z,11.30
2017-09-17T04:06:28.977Z,12.25
2017-09-17T04:07:02.692Z,12.68
2017-09-17T04:07:36.397Z,18.85
2017-09-17T04:08:10.106Z,11.70
2017-09-17T04:08:44.947Z,13.77
2017-09-17T04:09:18.645Z,14.43
2017-09-17T04:09:52.375Z,12.88
2017-09-17T04:10:26.126Z,15.00
2017-09-17T04:10:59.844Z,16.33
2017-09-17T04:11:33.545Z,11.30
2017-09-17T04:12:07.258Z,17.67
2017-09-17T04:12:41.741Z,13.38
2017-09-17T04:13:15.465Z,14.50
2017-09-17T04:13:50.305Z,12.75
2017-09-17T04:14:24.009Z,11.82
2017-09-17T04:14:57.721Z,12.85
2017-09-17T04:15:31.462Z,14.57
2017-09-17T04:16:05.949Z,12.48
2017-09-17T04:16:39.657Z,12.15
2017-09-17T04:17:14.140Z,12.43
2017-09-17T04:17:47.861Z,13.13
2017-09-17T04:18:22.486Z,12.60
2017-09-17T04:18:57.304Z,10.60
2017-09-17T04:19:31.009Z,11.70
2017-09-17T04:20:04.732Z,14.23
2017-09-17T04:20:38.436Z,13.60
2017-09-17T04:21:12.170Z,12.13
2017-09-17T04:21:45.884Z,13.13
2017-09-17T04:22:19.592Z,11.85
2017-09-17T04:22:53.285Z,12.02
2017-09-17T04:23:26.997Z,15.48
2017-09-17T04:24:01.641Z,13.45
2017-09-17T04:24:35.182Z,13.85
2017-09-17T04:25:08.893Z,13.90
2017-09-17T04:25:43.360Z,13.85
2017-09-17T04:26:17.072Z,14.38
2017-09-17T04:26:50.769Z,12.35
2017-09-17T04:27:24.472Z,12.32
2017-09-17T04:27:58.951Z,11.05
2017-09-17T04:28:32.676Z,10.10
2017-09-17T04:29:07.508Z,11.55
2017-09-17T04:29:41.962Z,9.80
2017-09-17T04:30:15.677Z,10.38
2017-09-17T04:30:49.380Z,9.85
2017-09-17T04:31:23.854Z,9.43
2017-09-17T04:31:57.585Z,12.98
2017-09-17T04:32:32.053Z,13.13
2017-09-17T04:33:05.577Z,12.20
2017-09-17T04:33:40.046Z,9.75
2017-09-17T04:34:14.085Z,11.75
2017-09-17T04:34:48.573Z,11.27
2017-09-17T04:35:22.276Z,15.18
2017-09-17T04:35:56.749Z,11.60
2017-09-17T04:36:30.261Z,10.98
2017-09-17T04:37:03.968Z,13.15
2017-09-17T04:37:38.461Z,15.35
2017-09-17T04:38:12.935Z,13.05
2017-09-17T04:38:46.638Z,12.32
2017-09-17T04:39:20.685Z,12.25
2017-09-17T04:39:54.385Z,11.02
2017-09-17T04:40:28.091Z,12.55
2017-09-17T04:41:01.856Z,9.55
2017-09-17T04:41:36.326Z,10.80
2017-09-17T04:42:10.056Z,11.52
2017-09-17T04:42:44.548Z,11.25
2017-09-17T04:43:19.053Z,14.25
2017-09-17T04:43:53.545Z,14.40
2017-09-17T04:44:27.577Z,16.15
2017-09-17T04:45:01.293Z,34.55
2017-09-17T04:45:34.997Z,46.33
2017-09-17T04:46:08.717Z,17.40
2017-09-17T04:46:42.454Z,14.20
2017-09-17T04:47:16.197Z,14.00
2017-09-17T04:47:49.919Z,26.67
2017-09-17T04:48:24.393Z,32.55
2017-09-17T04:48:58.106Z,27.80
2017-09-17T04:49:32.938Z,16.00
2017-09-17T04:50:06.671Z,20.70
2017-09-17T04:50:40.425Z,34.78
2017-09-17T04:51:14.169Z,27.40
2017-09-17T04:51:47.885Z,37.05
2017-09-17T04:52:22.357Z,32.95
2017-09-17T04:52:56.340Z,27.80
2017-09-17T04:53:30.064Z,21.02
2017-09-17T04:54:03.799Z,21.35
2017-09-17T04:54:37.892Z,17.52
2017-09-17T04:55:11.625Z,19.65
2017-09-17T04:55:45.338Z,19.27
2017-09-17T04:56:19.831Z,17.98
2017-09-17T04:56:53.557Z,24.50
2017-09-17T04:57:28.034Z,23.58
2017-09-17T04:58:01.766Z,21.70
2017-09-17T04:58:35.493Z,18.05
2017-09-17T04:59:09.212Z,22.45
2017-09-17T04:59:43.261Z,20.62
2017-09-17T05:00:16.973Z,21.95
2017-09-17T05:00:50.694Z,24.98
2017-09-17T05:01:24.425Z,21.12
2017-09-17T05:01:58.149Z,24.40
2017-09-17T05:02:31.872Z,17.45
2017-09-17T05:03:05.598Z,18.30
2017-09-17T05:03:39.127Z,18.83
2017-09-17T05:04:12.845Z,14.32
2017-09-17T05:04:46.580Z,17.27
2017-09-17T05:05:20.300Z,16.05
2017-09-17T05:05:54.001Z,14.95
2017-09-17T05:06:27.697Z,9.52
2017-09-17T05:07:01.406Z,11.10
2017-09-17T05:07:35.888Z,11.68
2017-09-17T05:08:09.622Z,11.30
2017-09-17T05:08:44.081Z,12.37
2017-09-17T05:09:17.787Z,13.65
2017-09-17T05:09:51.773Z,11.77
2017-09-17T05:10:25.495Z,13.60
2017-09-17T05:11:00.001Z,11.77
2017-09-17T05:11:34.470Z,9.95
2017-09-17T05:12:08.390Z,11.80
2017-09-17T05:12:42.099Z,14.87
2017-09-17T05:13:16.567Z,9.40
2017-09-17T05:13:50.274Z,11.95
2017-09-17T05:14:23.996Z,10.60
2017-09-17T05:14:58.819Z,9.50
2017-09-17T05:15:33.277Z,9.52
2017-09-17T05:16:06.978Z,13.00
2017-09-17T05:16:40.673Z,9.90
2017-09-17T05:17:14.368Z,8.98
2017-09-17T05:17:48.077Z,9.13
2017-09-17T05:18:22.543Z,13.13
2017-09-17T05:18:56.240Z,11.55
2017-09-17T05:19:29.947Z,9.10
2017-09-17T05:20:04.397Z,11.70
2017-09-17T05:20:38.109Z,12.00
2017-09-17T05:21:11.808Z,11.50
2017-09-17T05:21:45.525Z,12.20
2017-09-17T05:22:19.229Z,9.13
2017-09-17T05:22:53.701Z,12.00
2017-09-17T05:23:27.414Z,12.48
2017-09-17T05:24:01.132Z,11.60
2017-09-17T05:24:35.615Z,12.50
2017-09-17T05:25:09.653Z,9.80
2017-09-17T05:25:43.361Z,10.48
2017-09-17T05:26:17.057Z,9.70
2017-09-17T05:26:50.791Z,13.13
2017-09-17T05:27:24.494Z,9.55
2017-09-17T05:27:58.966Z,11.60
2017-09-17T05:28:32.672Z,10.65
2017-09-17T05:29:06.380Z,10.38
2017-09-17T05:29:40.854Z,10.63
2017-09-17T05:30:14.895Z,9.98
2017-09-17T05:30:49.392Z,9.93
2017-09-17T05:31:23.856Z,9.82
2017-09-17T05:31:57.585Z,14.05
2017-09-17T05:32:32.050Z,13.35
2017-09-17T05:33:05.765Z,10.57
2017-09-17T05:33:39.293Z,10.70
2017-09-17T05:34:12.808Z,10.00
2017-09-17T05:34:46.508Z,11.52
2017-09-17T05:35:20.574Z,10.15
2017-09-17T05:35:54.290Z,12.02
2017-09-17T05:36:27.985Z,13.55
2017-09-17T05:37:01.696Z,11.35
2017-09-17T05:37:35.210Z,9.73
2017-09-17T05:38:09.485Z,13.25
2017-09-17T05:38:42.999Z,10.65
2017-09-17T05:39:17.515Z,12.15
2017-09-17T05:39:51.968Z,9.98
2017-09-17T05:40:26.062Z,10.95
2017-09-17T05:40:59.752Z,12.60
2017-09-17T05:41:33.463Z,13.73
2017-09-17T05:42:07.155Z,12.30
2017-09-17T05:42:40.872Z,13.57
2017-09-17T05:43:15.341Z,11.60
2017-09-17T05:43:49.032Z,12.18
2017-09-17T05:44:22.760Z,10.35
2017-09-17T05:44:57.241Z,11.55
2017-09-17T05:45:31.240Z,15.85
2017-09-17T05:46:04.957Z,13.35
2017-09-17T05:46:39.427Z,10.65
2017-09-17T05:47:13.136Z,12.90
2017-09-17T05:47:46.872Z,12.88
2017-09-17T05:48:20.595Z,12.15
2017-09-17T05:48:54.129Z,14.77
2017-09-17T05:49:28.601Z,14.07
2017-09-17T05:50:02.337Z,15.13
2017-09-17T05:50:36.088Z,14.00
2017-09-17T05:51:09.796Z,11.45
2017-09-17T05:51:44.284Z,14.38
2017-09-17T05:52:17.993Z,12.60
2017-09-17T05:52:52.473Z,12.57
2017-09-17T05:53:26.180Z,13.82
2017-09-17T05:53:59.892Z,12.30
2017-09-17T05:54:34.382Z,11.73
2017-09-17T05:55:08.084Z,11.30
2017-09-17T05:55:42.860Z,14.20
2017-09-17T05:56:16.581Z,12.02
2017-09-17T05:56:50.291Z,11.48
2017-09-17T05:57:24.754Z,12.27
2017-09-17T05:57:58.456Z,11.30
2017-09-17T05:58:32.158Z,11.12
2017-09-17T05:59:05.872Z,10.75
2017-09-17T05:59:40.326Z,9.60
2017-09-17T06:00:14.033Z,9.73
2017-09-17T06:00:48.015Z,12.60
2017-09-17T06:01:21.722Z,11.02
2017-09-17T06:01:55.427Z,13.55
2017-09-17T06:02:29.121Z,13.40
2017-09-17T06:03:02.637Z,10.45
2017-09-17T06:03:36.333Z,10.05
2017-09-17T06:04:10.032Z,11.50
2017-09-17T06:04:43.741Z,14.93
2017-09-17T06:05:17.479Z,9.75
2017-09-17T06:05:52.302Z,12.48
2017-09-17T06:06:26.789Z,12.98
2017-09-17T06:07:00.492Z,11.00
2017-09-17T06:07:34.997Z,15.43
2017-09-17T06:08:09.473Z,14.20
2017-09-17T06:08:43.184Z,12.40
2017-09-17T06:09:16.903Z,11.48
2017-09-17T06:09:50.621Z,11.88
2017-09-17T06:10:24.352Z,12.70
2017-09-17T06:10:58.394Z,11.57
2017-09-17T06:11:32.166Z,11.90
2017-09-17T06:12:06.655Z,14.13
2017-09-17T06:12:41.163Z,14.85
2017-09-17T06:13:14.877Z,10.68
2017-09-17T06:13:49.353Z,9.52
2017-09-17T06:14:23.065Z,10.73
2017-09-17T06:14:56.772Z,12.98
2017-09-17T06:15:31.256Z,11.75
2017-09-17T06:16:05.749Z,14.77
2017-09-17T06:16:39.480Z,11.40
2017-09-17T06:17:13.955Z,10.40
2017-09-17T06:17:47.662Z,9.90
2017-09-17T06:18:21.377Z,9.77
2017-09-17T06:18:55.078Z,9.10
2017-09-17T06:19:28.780Z,9.07
2017-09-17T06:20:02.511Z,10.57
2017-09-17T06:20:36.239Z,11.63
2017-09-17T06:21:10.342Z,11.68
2017-09-17T06:21:44.069Z,12.07
2017-09-17T06:22:17.785Z,8.95
2017-09-17T06:22:51.493Z,11.25
2017-09-17T06:23:25.957Z,11.73
2017-09-17T06:23:59.693Z,10.57
2017-09-17T06:24:34.307Z,16.42
2017-09-17T06:25:08.789Z,11.05
2017-09-17T06:25:42.517Z,14.52
2017-09-17T06:26:16.526Z,10.07
2017-09-17T06:26:50.228Z,12.18
2017-09-17T06:27:24.022Z,10.75
2017-09-17T06:27:57.549Z,10.13
2017-09-17T06:28:31.262Z,15.77
2017-09-17T06:29:05.750Z,12.63
2017-09-17T06:29:39.474Z,11.30
2017-09-17T06:30:13.187Z,10.98
2017-09-17T06:30:46.934Z,11.00
2017-09-17T06:31:20.941Z,9.88
2017-09-17T06:31:55.417Z,10.23
2017-09-17T06:32:29.136Z,11.27
2017-09-17T06:33:03.621Z,11.00
2017-09-17T06:33:37.333Z,12.80
2017-09-17T06:34:11.829Z,13.90
2017-09-17T06:34:45.553Z,16.27
2017-09-17T06:35:19.111Z,12.48
2017-09-17T06:35:53.599Z,13.82
2017-09-17T06:36:27.646Z,13.07
2017-09-17T06:37:01.365Z,12.52
2017-09-17T06:37:35.089Z,13.65
2017-09-17T06:38:08.784Z,12.35
2017-09-17T06:38:48.008Z,12.85
2017-09-17T06:39:23.228Z,18.35
2017-09-17T06:39:56.938Z,11.57
2017-09-17T06:40:31.342Z,11.48
2017-09-17T06:41:05.085Z,14.55
2017-09-17T06:41:39.076Z,14.60
2017-09-17T06:42:12.800Z,17.02
2017-09-17T06:42:46.533Z,20.95
2017-09-17T06:43:20.069Z,28.48
2017-09-17T06:43:53.777Z,21.85
2017-09-17T06:44:28.261Z,19.62
2017-09-17T06:45:01.988Z,20.67
2017-09-17T06:45:36.136Z,17.58
2017-09-17T06:46:09.862Z,16.37
2017-09-17T06:46:44.717Z,22.25
2017-09-17T06:47:18.447Z,13.15
2017-09-17T06:47:52.193Z,15.88
2017-09-17T06:48:25.919Z,15.82
2017-09-17T06:48:59.637Z,14.98
2017-09-17T06:49:33.349Z,10.48
2017-09-17T06:50:07.850Z,14.25
2017-09-17T06:50:42.381Z,11.02
2017-09-17T06:51:16.096Z,12.80
2017-09-17T06:51:50.117Z,12.70
2017-09-17T06:52:23.824Z,11.85
2017-09-17T06:52:57.540Z,11.82
2017-09-17T06:53:32.012Z,11.68
2017-09-17T06:54:05.736Z,11.12
2017-09-17T06:54:40.214Z,12.07
2017-09-17T06:55:13.934Z,12.73
2017-09-17T06:55:48.416Z,12.10
2017-09-17T06:56:22.160Z,14.65
2017-09-17T06:56:56.256Z,12.10
2017-09-17T06:57:30.742Z,9.57
2017-09-17T06:58:05.272Z,20.15
2017-09-17T06:58:38.996Z,22.80
2017-09-17T06:59:12.716Z,18.05
2017-09-17T06:59:46.442Z,23.33
2017-09-17T07:00:20.220Z,21.23
2017-09-17T07:00:54.710Z,17.85
2017-09-17T07:01:29.196Z,13.15
2017-09-17T07:02:03.252Z,11.35
2017-09-17T07:02:36.968Z,14.00
2017-09-17T07:03:10.698Z,23.12
2017-09-17T07:03:44.507Z,12.00
2017-09-17T07:04:18.971Z,26.20
2017-09-17T07:04:52.687Z,20.35
2017-09-17T07:05:26.405Z,16.00
2017-09-17T07:06:00.129Z,14.90
2017-09-17T07:06:33.841Z,15.82
2017-09-17T07:07:07.908Z,16.60
2017-09-17T07:07:41.636Z,14.55
2017-09-17T07:08:15.365Z,12.70
2017-09-17T07:08:49.850Z,13.00
2017-09-17T07:09:23.568Z,15.05
2017-09-17T07:09:57.284Z,14.80
2017-09-17T07:10:31.018Z,16.15
2017-09-17T07:11:04.832Z,13.85
2017-09-17T07:11:39.316Z,12.40
2017-09-17T07:12:13.359Z,16.62
2017-09-17T07:12:47.089Z,12.68
2017-09-17T07:13:20.801Z,14.30
2017-09-17T07:13:54.509Z,13.10
2017-09-17T07:14:29.041Z,16.33
2017-09-17T07:15:02.758Z,15.80
2017-09-17T07:15:36.481Z,13.85
2017-09-17T07:16:10.189Z,10.80
2017-09-17T07:16:44.708Z,13.02
2017-09-17T07:17:18.444Z,12.37
2017-09-17T07:17:52.181Z,12.32